Palanga, Lithuania
Current Conditions -  °F | °C
As of 7:20 AM on Thursday 29 Jan 2015 (Local Time) from EYPA Reporting Station
Broken Clouds Broken Clouds  
Wind Chill: 22°   Ceiling: 1900
Heat Index: 34°   Visibility: 6mi
Dew Point: 28°   Wind: 22mph
Humidity: 81%   Direction: 170°S
Pressure: 29.15"   Gusts: NA
Location:  55.92°N, 21.06°E
Report Text: EYPA 290420Z 17019KT 9999 BKN019 01/M02 Q0987 R19/1///95
Loading
Personal Weather Stations






























Interactive Weather Map New forecast layout! Learn more

10-Day Weather Forecast

Advertisements
Track Severe Weather on mobile